createdAt,value
2022-08-05T00:01:35.753Z,24.30
2022-08-05T00:06:40.074Z,24.80
2022-08-05T00:11:48.481Z,24.60
2022-08-05T00:16:54.238Z,24.80
2022-08-05T00:21:57.396Z,25.30
2022-08-05T00:27:01.168Z,25.10
2022-08-05T00:32:15.340Z,25.30
2022-08-05T00:37:19.051Z,26.00
2022-08-05T00:42:32.522Z,25.40
2022-08-05T00:47:53.309Z,26.20
2022-08-05T00:53:01.036Z,25.90
2022-08-05T00:58:04.952Z,25.60
2022-08-05T01:03:10.390Z,25.60
2022-08-05T01:08:41.409Z,26.10
2022-08-05T01:13:59.119Z,25.70
2022-08-05T01:19:14.213Z,26.40
2022-08-05T01:24:34.332Z,26.60
2022-08-05T01:29:46.658Z,26.50
2022-08-05T01:34:55.722Z,26.60
2022-08-05T01:40:00.770Z,26.50
2022-08-05T01:45:08.027Z,26.30
2022-08-05T01:50:17.304Z,26.50
2022-08-05T01:55:23.577Z,26.80
2022-08-05T02:00:31.161Z,26.80
2022-08-05T02:05:37.763Z,27.00
2022-08-05T02:10:51.441Z,26.90
2022-08-05T02:16:03.803Z,27.40
2022-08-05T02:21:15.042Z,27.40
2022-08-05T02:26:24.398Z,27.50
2022-08-05T02:31:35.019Z,27.80
2022-08-05T02:36:42.474Z,27.80
2022-08-05T02:42:00.613Z,27.70
2022-08-05T02:47:09.054Z,28.20
2022-08-05T02:52:25.845Z,28.70
2022-08-05T02:58:20.021Z,28.40
2022-08-05T03:03:00.061Z,28.10
2022-08-05T03:08:08.594Z,28.50
2022-08-05T03:13:16.789Z,28.00
2022-08-05T03:18:29.899Z,28.90
2022-08-05T03:23:34.349Z,28.90
2022-08-05T03:28:38.489Z,28.90
2022-08-05T03:33:52.911Z,28.80
2022-08-05T03:38:56.485Z,29.40
2022-08-05T03:44:11.540Z,28.80
2022-08-05T03:49:16.489Z,28.70
2022-08-05T03:55:49.906Z,29.30
2022-08-05T03:59:55.700Z,29.80
2022-08-05T04:05:01.321Z,29.40
2022-08-05T04:10:04.946Z,29.50
2022-08-05T04:15:09.441Z,29.20
2022-08-05T04:20:22.146Z,29.70
2022-08-05T04:25:57.956Z,30.30
2022-08-05T04:30:50.441Z,30.00
2022-08-05T04:36:11.094Z,30.40
2022-08-05T04:41:19.044Z,30.70
2022-08-05T04:46:28.486Z,30.40
2022-08-05T04:51:33.245Z,30.80
2022-08-05T04:56:38.074Z,31.80
2022-08-05T05:02:35.688Z,31.30
2022-08-05T05:07:09.476Z,31.30
2022-08-05T05:12:12.809Z,32.30
2022-08-05T05:17:19.859Z,31.80
2022-08-05T05:22:28.322Z,32.00
2022-08-05T05:27:44.838Z,32.90
2022-08-05T05:32:49.270Z,32.80
2022-08-05T05:37:59.479Z,32.40
2022-08-05T05:43:04.681Z,33.70
2022-08-05T05:48:11.746Z,32.80
2022-08-05T05:53:22.788Z,33.20
2022-08-05T05:58:31.856Z,34.00
2022-08-05T06:03:53.875Z,33.30
2022-08-05T06:09:04.222Z,33.90
2022-08-05T06:14:07.468Z,33.90
2022-08-05T06:19:10.616Z,32.30
2022-08-05T06:24:17.080Z,31.80
2022-08-05T06:29:52.023Z,31.70
2022-08-05T06:34:53.500Z,31.30
2022-08-05T06:40:01.055Z,30.90
2022-08-05T06:45:08.786Z,30.80
2022-08-05T06:50:12.208Z,30.20
2022-08-05T06:55:22.527Z,29.90
2022-08-05T07:00:26.125Z,29.90
2022-08-05T07:05:37.160Z,30.50
2022-08-05T07:10:53.339Z,30.00
2022-08-05T07:17:56.433Z,30.00
2022-08-05T07:21:59.300Z,30.00
2022-08-05T07:27:02.959Z,30.00
2022-08-05T07:32:07.152Z,30.00
2022-08-05T07:37:11.540Z,29.80
2022-08-05T07:42:16.505Z,30.30
2022-08-05T07:47:42.113Z,30.00
2022-08-05T07:52:46.644Z,29.40
2022-08-05T07:58:02.195Z,29.30
2022-08-05T08:03:14.037Z,29.00
2022-08-05T08:08:19.945Z,28.50
2022-08-05T08:13:29.300Z,28.40
2022-08-05T08:18:32.696Z,28.40
2022-08-05T08:24:03.053Z,28.30
2022-08-05T08:29:14.166Z,28.30
2022-08-05T08:34:30.545Z,27.60
2022-08-05T08:39:37.588Z,27.40
2022-08-05T08:45:16.942Z,27.00
2022-08-05T08:50:30.155Z,26.20
2022-08-05T08:56:03.731Z,25.90
2022-08-05T09:00:56.874Z,25.40
2022-08-05T09:06:08.923Z,24.60
2022-08-05T09:11:15.865Z,24.60
2022-08-05T09:16:21.072Z,24.00
2022-08-05T09:22:22.813Z,23.60
2022-08-05T09:26:57.394Z,23.70
2022-08-05T09:32:41.270Z,22.80
2022-08-05T09:38:12.375Z,21.90
2022-08-05T09:42:54.531Z,22.80
2022-08-05T09:48:00.663Z,22.90
2022-08-05T09:53:04.191Z,22.10
2022-08-05T09:58:12.344Z,22.10
2022-08-05T10:03:16.966Z,21.20
2022-08-05T10:08:37.261Z,20.90
2022-08-05T10:13:46.272Z,20.60
2022-08-05T10:18:52.638Z,21.00
2022-08-05T10:23:59.482Z,20.90
2022-08-05T10:29:03.679Z,21.30
2022-08-05T10:34:09.460Z,21.30
2022-08-05T10:39:24.502Z,20.50
2022-08-05T10:44:30.551Z,20.40
2022-08-05T10:49:48.709Z,20.30
2022-08-05T10:55:06.309Z,19.90
2022-08-05T11:00:20.181Z,20.00
2022-08-05T11:05:29.080Z,19.20
2022-08-05T11:10:37.058Z,19.10
2022-08-05T11:15:59.455Z,19.40
2022-08-05T11:21:32.240Z,19.20
2022-08-05T11:27:51.491Z,18.70
2022-08-05T11:33:43.782Z,18.10
2022-08-05T11:38:57.830Z,17.70
2022-08-05T11:44:07.224Z,18.10
2022-08-05T11:49:14.818Z,18.40
2022-08-05T11:54:33.176Z,18.20
2022-08-05T11:59:41.210Z,17.70
2022-08-05T12:04:59.178Z,18.10
2022-08-05T12:10:09.110Z,17.70
2022-08-05T12:15:35.892Z,17.80
2022-08-05T12:20:41.767Z,17.20
2022-08-05T12:25:53.800Z,17.70
2022-08-05T12:31:02.278Z,16.90
2022-08-05T12:36:08.390Z,17.30
2022-08-05T12:41:16.310Z,17.00
2022-08-05T12:46:28.921Z,16.40
2022-08-05T12:52:14.292Z,16.20
2022-08-05T12:57:00.017Z,16.70
2022-08-05T13:02:07.835Z,15.90
2022-08-05T13:07:16.055Z,16.50
2022-08-05T13:12:23.150Z,15.80
2022-08-05T13:17:42.281Z,15.60
2022-08-05T13:22:50.336Z,16.00
2022-08-05T13:27:57.463Z,15.20
2022-08-05T13:33:01.518Z,15.10
2022-08-05T13:38:05.951Z,15.70
2022-08-05T13:43:12.138Z,15.80
2022-08-05T13:48:58.484Z,15.60
2022-08-05T13:53:48.188Z,15.70
2022-08-05T13:58:53.902Z,15.50
2022-08-05T14:04:14.711Z,14.90
2022-08-05T14:09:18.319Z,15.00
2022-08-05T14:14:30.826Z,14.70
2022-08-05T14:19:54.609Z,14.50
2022-08-05T14:24:59.289Z,14.80
2022-08-05T14:30:04.286Z,14.90
2022-08-05T14:35:11.350Z,14.80
2022-08-05T14:40:16.946Z,14.80
2022-08-05T14:45:21.807Z,14.70
2022-08-05T14:50:26.303Z,14.50
2022-08-05T14:55:39.060Z,14.70
2022-08-05T15:00:58.212Z,14.40
2022-08-05T15:06:13.254Z,14.30
2022-08-05T15:11:18.899Z,14.20
2022-08-05T15:16:24.060Z,14.30
2022-08-05T15:21:27.378Z,13.80
2022-08-05T15:26:33.865Z,14.00
2022-08-05T15:31:38.376Z,14.30
2022-08-05T15:36:41.764Z,13.60
2022-08-05T15:41:57.549Z,13.90
2022-08-05T15:47:04.360Z,13.70
2022-08-05T15:52:16.165Z,13.70
2022-08-05T15:57:20.920Z,13.70
2022-08-05T16:02:27.659Z,13.70
2022-08-05T16:07:32.491Z,13.70
2022-08-05T16:12:35.708Z,13.70
2022-08-05T16:17:42.210Z,13.70
2022-08-05T16:22:45.476Z,13.40
2022-08-05T16:28:02.121Z,13.70
2022-08-05T16:33:10.312Z,13.70
2022-08-05T16:38:18.530Z,13.70
2022-08-05T16:43:30.254Z,13.70
2022-08-05T16:48:35.594Z,13.40
2022-08-05T16:54:06.074Z,13.10
2022-08-05T16:59:08.141Z,13.40
2022-08-05T17:04:13.281Z,13.40
2022-08-05T17:09:18.333Z,13.30
2022-08-05T17:14:22.337Z,13.40
2022-08-05T17:19:43.840Z,13.40
2022-08-05T17:24:57.494Z,13.40
2022-08-05T17:30:02.672Z,13.40
2022-08-05T17:35:08.702Z,13.30
2022-08-05T17:40:17.868Z,13.30
2022-08-05T17:45:22.457Z,13.30
2022-08-05T17:50:30.837Z,13.90
2022-08-05T17:55:38.748Z,13.30
2022-08-05T18:00:47.572Z,13.50
2022-08-05T18:06:01.926Z,13.70
2022-08-05T18:11:05.489Z,14.00
2022-08-05T18:16:09.637Z,14.40
2022-08-05T18:21:19.854Z,14.40
2022-08-05T18:26:29.155Z,14.60
2022-08-05T18:31:35.451Z,14.60
2022-08-05T18:36:41.229Z,14.30
2022-08-05T18:41:58.283Z,14.30
2022-08-05T18:47:05.038Z,14.60
2022-08-05T18:52:32.894Z,14.80
2022-08-05T18:57:50.053Z,14.70
2022-08-05T19:02:56.815Z,15.30
2022-08-05T19:08:02.858Z,15.70
2022-08-05T19:13:06.102Z,15.10
2022-08-05T19:18:22.420Z,14.90
2022-08-05T19:24:08.156Z,15.10
2022-08-05T19:28:52.033Z,15.40
2022-08-05T19:33:56.238Z,15.70
2022-08-05T19:39:02.007Z,15.60
2022-08-05T19:44:13.268Z,15.70
2022-08-05T19:49:18.002Z,15.60
2022-08-05T19:54:29.611Z,15.80
2022-08-05T19:59:54.799Z,16.30
2022-08-05T20:04:59.650Z,16.50
2022-08-05T20:10:11.589Z,16.30
2022-08-05T20:15:48.231Z,16.40
2022-08-05T20:20:44.639Z,16.60
2022-08-05T20:25:49.450Z,17.00
2022-08-05T20:30:55.697Z,17.00
2022-08-05T20:35:59.267Z,17.50
2022-08-05T20:41:04.461Z,18.30
2022-08-05T20:46:18.670Z,19.40
2022-08-05T20:51:28.779Z,19.80
2022-08-05T20:56:41.882Z,21.40
2022-08-05T21:01:45.815Z,21.90
2022-08-05T21:06:49.009Z,21.80
2022-08-05T21:12:08.101Z,23.40
2022-08-05T21:17:14.584Z,24.30
2022-08-05T21:22:21.819Z,24.00
2022-08-05T21:27:28.229Z,24.50
2022-08-05T21:32:42.208Z,25.50
2022-08-05T21:37:52.698Z,25.00
2022-08-05T21:42:59.017Z,25.40
2022-08-05T21:48:06.246Z,26.50
2022-08-05T21:53:17.567Z,25.80
2022-08-05T21:58:28.841Z,26.30
2022-08-05T22:03:52.048Z,27.70
2022-08-05T22:08:56.408Z,27.20
2022-08-05T22:14:19.803Z,27.20
2022-08-05T22:20:03.484Z,28.40
2022-08-05T22:25:05.910Z,27.80
2022-08-05T22:30:22.569Z,28.30
2022-08-05T22:35:25.979Z,29.40
2022-08-05T22:40:34.404Z,28.80
2022-08-05T22:45:39.106Z,29.30
2022-08-05T22:50:46.109Z,29.70
2022-08-05T22:55:59.425Z,29.40
2022-08-05T23:01:04.381Z,29.40
2022-08-05T23:06:09.761Z,30.70
2022-08-05T23:11:13.464Z,30.00
2022-08-05T23:16:25.992Z,30.40
2022-08-05T23:21:42.805Z,32.20
2022-08-05T23:26:51.492Z,31.30
2022-08-05T23:31:56.010Z,31.90
2022-08-05T23:36:59.654Z,33.00
2022-08-05T23:42:03.706Z,32.70
2022-08-05T23:47:15.266Z,32.80
2022-08-05T23:52:29.296Z,33.70
2022-08-05T23:57:34.809Z,32.70
